Time;durP1;ratioP1;P1;durP2;ratioP2;P2;SDS_P1;SDS_P2;PMS_P1;PMS_P2;Temp;Humidity;BMP_temperature;BMP_pressure;BME280_temperature;BME280_humidity;BME280_pressure;Samples;Min_cycle;Max_cycle;Signal;HPM_P1;HPM_P2
2021/10/13 00:01:14;;;;;;;;;;;5.70;99.90;;;;;;5002463;28;19925;-73
2021/10/13 00:03:41;;;;;;;;;;;5.70;99.90;;;;;;5005077;28;19932;-73
2021/10/13 00:06:08;;;;;;;;;;;5.70;99.90;;;;;;4999798;28;19968;-73
2021/10/13 00:08:36;;;;;;;;;;;5.70;99.90;;;;;;4994613;28;19921;-73
2021/10/13 00:11:02;;;;;;;;;;;5.80;99.90;;;;;;4992280;28;19940;-73
2021/10/13 00:13:29;;;;;;;;;;;5.80;99.90;;;;;;5003986;28;19926;-73
2021/10/13 00:15:56;;;;;;;;;;;5.80;99.90;;;;;;4997096;28;19972;-73
2021/10/13 00:18:22;;;;;;;;;;;5.70;99.90;;;;;;5000239;28;19928;-73
2021/10/13 00:20:49;;;;;;;;;;;5.80;99.90;;;;;;5000401;28;19921;-72
2021/10/13 00:23:16;;;;;;;;;;;5.70;99.90;;;;;;5000685;28;19979;-73
2021/10/13 00:25:44;;;;;;;;;;;5.70;99.90;;;;;;5000104;28;21843;-73
2021/10/13 00:28:11;;;;;;;;;;;5.70;99.90;;;;;;4997808;28;21061;-72
2021/10/13 00:30:37;;;;;;;;;;;5.80;99.90;;;;;;4995716;28;20581;-72
2021/10/13 00:33:04;;;;;;;;;;;5.90;99.90;;;;;;4999903;28;19921;-72
2021/10/13 00:35:31;;;;;;;;;;;5.90;99.90;;;;;;4998740;28;19967;-73
2021/10/13 00:37:57;;;;;;;;;;;5.90;99.90;;;;;;5002579;28;20361;-73
2021/10/13 00:40:24;;;;;;;;;;;5.90;99.90;;;;;;4993875;28;19955;-73
2021/10/13 00:42:52;;;;;;;;;;;5.90;99.90;;;;;;5005691;28;19994;-73
2021/10/13 00:45:19;;;;;;;;;;;5.90;99.90;;;;;;5002571;28;19942;-73
2021/10/13 00:47:45;;;;;;;;;;;5.90;99.90;;;;;;4998694;28;19936;-73
2021/10/13 00:50:13;;;;;;;;;;;5.90;99.90;;;;;;4989922;28;19942;-73
2021/10/13 00:52:41;;;;;;;;;;;5.90;99.90;;;;;;4995873;28;19959;-73
2021/10/13 00:55:08;;;;;;;;;;;5.80;99.90;;;;;;5002787;28;19942;-73
2021/10/13 00:57:34;;;;;;;;;;;5.80;99.90;;;;;;5004706;28;19942;-73
2021/10/13 01:00:03;;;;;;;;;;;5.80;99.90;;;;;;5003606;28;19956;-73
2021/10/13 01:02:31;;;;;;;;;;;5.80;99.90;;;;;;4997993;28;19956;-73
2021/10/13 01:05:05;;;;;;;;;;;5.80;99.90;;;;;;4998657;28;19951;-73
2021/10/13 01:07:34;;;;;;;;;;;5.70;99.90;;;;;;5001594;28;19944;-73
2021/10/13 01:10:06;;;;;;;;;;;5.70;99.90;;;;;;4991192;28;20432;-73
2021/10/13 01:12:41;;;;;;;;;;;5.60;99.90;;;;;;4997616;28;19948;-73
2021/10/13 01:15:14;;;;;;;;;;;5.60;99.90;;;;;;4994676;28;19965;-73
2021/10/13 01:17:43;;;;;;;;;;;5.60;99.90;;;;;;5001970;28;20027;-73
2021/10/13 01:20:13;;;;;;;;;;;5.60;99.90;;;;;;4998074;28;19963;-73
2021/10/13 01:22:48;;;;;;;;;;;5.70;99.90;;;;;;4994336;28;19934;-72
2021/10/13 01:25:22;;;;;;;;;;;5.70;99.90;;;;;;4995783;28;19933;-71
2021/10/13 01:27:55;;;;;;;;;;;5.60;99.90;;;;;;5000563;28;20316;-72
2021/10/13 01:30:22;;;;;;;;;;;5.40;99.90;;;;;;4993832;28;19935;-71
2021/10/13 01:32:52;;;;;;;;;;;5.60;99.90;;;;;;4999424;28;19961;-71
2021/10/13 01:35:19;;;;;;;;;;;5.60;99.90;;;;;;4998110;28;19950;-72
2021/10/13 01:37:48;;;;;;;;;;;5.60;99.90;;;;;;4999513;28;20314;-72
2021/10/13 01:40:16;;;;;;;;;;;5.50;99.90;;;;;;4989947;28;20318;-72
2021/10/13 01:42:44;;;;;;;;;;;5.50;99.90;;;;;;4995510;28;19943;-72
2021/10/13 01:45:12;;;;;;;;;;;5.50;99.90;;;;;;5001989;28;19952;-72
2021/10/13 01:47:40;;;;;;;;;;;5.60;99.90;;;;;;5002607;28;19936;-71
2021/10/13 01:50:07;;;;;;;;;;;5.60;99.90;;;;;;4999136;28;19954;-72
2021/10/13 01:52:34;;;;;;;;;;;5.60;99.90;;;;;;4998419;28;19995;-72
2021/10/13 01:55:02;;;;;;;;;;;5.60;99.90;;;;;;4996288;28;19942;-72
2021/10/13 01:57:29;;;;;;;;;;;5.70;99.90;;;;;;4995274;28;20831;-72
2021/10/13 01:59:58;;;;;;;;;;;5.80;99.90;;;;;;5000024;28;19947;-72
2021/10/13 02:02:28;;;;;;;;;;;5.80;99.90;;;;;;5000923;28;19948;-72
2021/10/13 02:04:57;;;;;;;;;;;5.80;99.90;;;;;;4994322;28;19937;-72
2021/10/13 02:07:24;;;;;;;;;;;5.90;99.90;;;;;;5001120;28;19944;-73
2021/10/13 02:09:53;;;;;;;;;;;5.80;99.90;;;;;;4999619;28;19936;-73
2021/10/13 02:12:20;;;;;;;;;;;5.80;99.90;;;;;;4995924;28;19942;-72
2021/10/13 02:14:47;;;;;;;;;;;5.90;99.90;;;;;;4998057;28;20310;-72
2021/10/13 02:17:14;;;;;;;;;;;6.00;99.90;;;;;;4997742;28;19948;-72
2021/10/13 02:19:42;;;;;;;;;;;6.00;99.90;;;;;;4996045;28;19939;-73
2021/10/13 02:22:09;;;;;;;;;;;6.10;99.90;;;;;;5002062;28;19967;-72
2021/10/13 02:24:39;;;;;;;;;;;6.20;99.90;;;;;;5000105;28;20438;-72
2021/10/13 02:27:08;;;;;;;;;;;6.30;99.90;;;;;;5002172;28;19951;-73
2021/10/13 02:29:35;;;;;;;;;;;6.40;99.90;;;;;;5000980;28;19940;-72
2021/10/13 02:32:01;;;;;;;;;;;6.40;99.90;;;;;;4991476;28;19940;-72
2021/10/13 02:34:28;;;;;;;;;;;6.50;99.90;;;;;;4993022;28;19951;-73
2021/10/13 02:36:56;;;;;;;;;;;6.50;99.90;;;;;;4995078;28;19945;-72
2021/10/13 02:39:23;;;;;;;;;;;7.40;99.90;;;;;;4995382;28;19947;-72
2021/10/13 02:41:49;;;;;;;;;;;6.60;99.90;;;;;;4995703;28;21367;-72
2021/10/13 02:44:16;;;;;;;;;;;6.70;99.90;;;;;;4997192;28;19943;-72
2021/10/13 02:46:46;;;;;;;;;;;6.70;99.90;;;;;;4996397;28;19961;-73
2021/10/13 02:49:22;;;;;;;;;;;6.70;99.90;;;;;;4999963;28;19937;-72
2021/10/13 02:51:52;;;;;;;;;;;6.80;99.90;;;;;;4999309;28;19984;-72
2021/10/13 02:54:24;;;;;;;;;;;6.80;99.90;;;;;;5006850;28;19936;-73
2021/10/13 02:56:52;;;;;;;;;;;6.70;99.90;;;;;;5000587;28;19938;-72
2021/10/13 02:59:23;;;;;;;;;;;6.70;99.90;;;;;;5008185;28;19936;-72
2021/10/13 03:01:51;;;;;;;;;;;6.70;99.90;;;;;;4995818;28;19952;-72
2021/10/13 03:04:19;;;;;;;;;;;6.70;99.90;;;;;;4998524;28;19942;-72
2021/10/13 03:06:51;;;;;;;;;;;6.60;99.90;;;;;;5000624;28;20415;-73
2021/10/13 03:09:19;;;;;;;;;;;6.50;99.90;;;;;;4997480;28;19971;-73
2021/10/13 03:11:49;;;;;;;;;;;6.60;99.90;;;;;;5001202;28;19938;-73
2021/10/13 03:14:19;;;;;;;;;;;6.60;99.90;;;;;;5002703;28;20432;-72
2021/10/13 03:16:45;;;;;;;;;;;6.70;99.90;;;;;;4996548;28;20041;-73
2021/10/13 03:19:12;;;;;;;;;;;6.70;99.90;;;;;;4997207;28;19942;-73
2021/10/13 03:21:40;;;;;;;;;;;6.70;99.90;;;;;;4996438;28;20350;-72
2021/10/13 03:24:07;;;;;;;;;;;6.80;99.90;;;;;;5001568;28;19975;-72
2021/10/13 03:26:34;;;;;;;;;;;6.80;99.90;;;;;;5002988;28;20030;-73
2021/10/13 03:29:03;;;;;;;;;;;6.80;99.90;;;;;;4993730;28;20325;-72
2021/10/13 03:31:29;;;;;;;;;;;6.90;99.90;;;;;;4998511;28;19939;-72
2021/10/13 03:33:56;;;;;;;;;;;6.90;99.90;;;;;;4997640;28;20488;-72
2021/10/13 03:36:22;;;;;;;;;;;6.90;99.90;;;;;;5007651;28;20311;-72
2021/10/13 03:38:49;;;;;;;;;;;6.90;99.90;;;;;;5000440;28;19953;-73
2021/10/13 03:41:16;;;;;;;;;;;7.00;99.90;;;;;;5001482;28;19952;-72
2021/10/13 03:43:49;;;;;;;;;;;7.00;99.90;;;;;;5000072;28;19935;-72
2021/10/13 03:46:18;;;;;;;;;;;7.00;99.90;;;;;;5000570;28;19944;-72
2021/10/13 03:48:49;;;;;;;;;;;7.00;99.90;;;;;;4995066;28;19951;-72
2021/10/13 03:51:15;;;;;;;;;;;7.00;99.90;;;;;;4994532;28;19962;-72
2021/10/13 03:53:42;;;;;;;;;;;7.00;99.90;;;;;;4997204;28;20531;-72
2021/10/13 03:56:09;;;;;;;;;;;6.90;99.90;;;;;;4997304;28;19943;-72
2021/10/13 03:58:36;;;;;;;;;;;7.00;99.90;;;;;;4999458;28;19944;-72
2021/10/13 04:01:02;;;;;;;;;;;7.00;99.90;;;;;;4995912;28;20066;-72
2021/10/13 04:03:30;;;;;;;;;;;7.00;99.90;;;;;;4997766;28;19985;-72
2021/10/13 04:05:57;;;;;;;;;;;7.00;99.90;;;;;;4993824;28;19942;-72
2021/10/13 04:08:24;;;;;;;;;;;7.10;99.90;;;;;;5005825;28;19948;-72
2021/10/13 04:10:53;;;;;;;;;;;7.10;99.90;;;;;;4994653;28;20029;-72
2021/10/13 04:13:20;;;;;;;;;;;7.10;99.90;;;;;;4996473;28;19942;-72
2021/10/13 04:15:46;;;;;;;;;;;7.20;99.90;;;;;;5000647;28;20019;-72
2021/10/13 04:18:13;;;;;;;;;;;7.20;99.90;;;;;;4999380;28;20045;-73
2021/10/13 04:20:41;;;;;;;;;;;7.20;99.90;;;;;;5005205;28;19946;-73
2021/10/13 04:23:08;;;;;;;;;;;7.20;99.90;;;;;;5000111;28;19951;-72
2021/10/13 04:25:34;;;;;;;;;;;7.30;99.90;;;;;;4999465;28;20023;-73
2021/10/13 04:28:01;;;;;;;;;;;7.30;99.90;;;;;;4995897;28;19938;-73
2021/10/13 04:30:28;;;;;;;;;;;7.30;99.90;;;;;;5002671;28;20409;-72
2021/10/13 04:32:54;;;;;;;;;;;7.30;99.90;;;;;;4999882;28;19938;-73
2021/10/13 04:35:21;;;;;;;;;;;7.30;99.90;;;;;;5002017;28;19936;-73
2021/10/13 04:37:49;;;;;;;;;;;7.40;99.90;;;;;;5000881;28;20005;-72
2021/10/13 04:40:16;;;;;;;;;;;7.40;99.90;;;;;;4990050;28;19966;-71
2021/10/13 04:42:43;;;;;;;;;;;7.40;99.90;;;;;;4992599;28;19969;-73
2021/10/13 04:45:10;;;;;;;;;;;7.30;99.90;;;;;;5001995;28;19936;-72
2021/10/13 04:47:37;;;;;;;;;;;7.30;99.90;;;;;;5002253;28;20032;-71
2021/10/13 04:50:04;;;;;;;;;;;7.20;99.90;;;;;;4992224;28;20023;-72
2021/10/13 04:52:30;;;;;;;;;;;7.10;99.90;;;;;;4997941;28;19958;-72
2021/10/13 04:54:59;;;;;;;;;;;7.10;99.90;;;;;;4995989;28;19938;-72
2021/10/13 04:57:25;;;;;;;;;;;7.10;99.90;;;;;;4999682;28;20072;-72
2021/10/13 04:59:54;;;;;;;;;;;7.00;99.90;;;;;;5002532;28;20802;-72
2021/10/13 05:02:21;;;;;;;;;;;7.00;99.90;;;;;;4999869;28;19962;-72
2021/10/13 05:04:48;;;;;;;;;;;6.90;99.90;;;;;;5005650;28;20019;-72
2021/10/13 05:07:14;;;;;;;;;;;7.30;99.90;;;;;;4999800;28;20431;-72
2021/10/13 05:09:41;;;;;;;;;;;6.80;99.90;;;;;;5000605;28;20406;-72
2021/10/13 05:12:09;;;;;;;;;;;6.90;99.90;;;;;;4990886;28;20418;-72
2021/10/13 05:14:36;;;;;;;;;;;6.90;99.90;;;;;;5001130;28;19937;-72
2021/10/13 05:17:02;;;;;;;;;;;6.90;99.90;;;;;;4998716;28;19937;-72
2021/10/13 05:19:29;;;;;;;;;;;7.00;99.90;;;;;;4998918;28;19937;-72
2021/10/13 05:21:56;;;;;;;;;;;7.00;99.90;;;;;;5002380;28;19964;-72
2021/10/13 05:24:22;;;;;;;;;;;7.10;99.90;;;;;;4996042;28;19944;-71
2021/10/13 05:26:49;;;;;;;;;;;7.20;99.90;;;;;;4996032;28;20035;-71
2021/10/13 05:29:17;;;;;;;;;;;7.20;99.90;;;;;;4996509;28;19944;-71
2021/10/13 05:31:44;;;;;;;;;;;7.20;99.90;;;;;;4999387;28;19945;-72
2021/10/13 05:34:10;;;;;;;;;;;7.20;99.90;;;;;;4999165;28;19974;-71
2021/10/13 05:36:37;;;;;;;;;;;7.20;99.90;;;;;;5024094;28;19936;-72
2021/10/13 05:39:04;;;;;;;;;;;7.30;99.90;;;;;;4993298;28;20438;-72
2021/10/13 05:41:30;;;;;;;;;;;7.30;99.90;;;;;;4993288;28;20407;-72
2021/10/13 05:43:57;;;;;;;;;;;7.40;99.90;;;;;;4993013;28;19961;-72
2021/10/13 05:46:25;;;;;;;;;;;7.30;99.90;;;;;;4993775;28;20421;-71
2021/10/13 05:48:52;;;;;;;;;;;7.40;99.90;;;;;;4998068;28;20276;-72
2021/10/13 05:51:21;;;;;;;;;;;7.40;99.90;;;;;;4996606;28;20374;-71
2021/10/13 05:53:47;;;;;;;;;;;7.40;99.90;;;;;;4990942;28;19940;-71
2021/10/13 05:56:14;;;;;;;;;;;7.50;99.90;;;;;;4989816;28;19941;-71
2021/10/13 05:58:41;;;;;;;;;;;7.50;99.90;;;;;;4995090;28;20038;-72
2021/10/13 06:01:08;;;;;;;;;;;7.50;99.90;;;;;;4996317;28;19941;-71
2021/10/13 06:03:36;;;;;;;;;;;7.50;99.90;;;;;;4992518;28;19960;-71
2021/10/13 06:06:02;;;;;;;;;;;7.50;99.90;;;;;;4999161;28;20340;-71
2021/10/13 06:08:29;;;;;;;;;;;7.60;99.90;;;;;;4999539;28;20367;-73
2021/10/13 06:10:56;;;;;;;;;;;7.60;99.90;;;;;;4999578;28;19989;-72
2021/10/13 06:13:22;;;;;;;;;;;7.60;99.90;;;;;;4989718;28;19975;-73
2021/10/13 06:15:51;;;;;;;;;;;7.70;99.90;;;;;;5010785;28;19966;-73
2021/10/13 06:18:17;;;;;;;;;;;7.70;99.90;;;;;;5005272;28;20036;-72
2021/10/13 06:20:45;;;;;;;;;;;7.70;99.90;;;;;;5004665;28;19943;-72
2021/10/13 06:23:12;;;;;;;;;;;7.70;99.90;;;;;;4998914;28;20318;-73
2021/10/13 06:25:39;;;;;;;;;;;7.80;99.90;;;;;;5005924;28;20398;-73
2021/10/13 06:28:05;;;;;;;;;;;7.80;99.90;;;;;;5001613;28;19947;-74
2021/10/13 06:30:33;;;;;;;;;;;7.80;99.90;;;;;;5015935;28;20102;-72
2021/10/13 06:32:59;;;;;;;;;;;7.80;99.90;;;;;;4997467;28;19997;-73
2021/10/13 06:35:26;;;;;;;;;;;7.90;99.90;;;;;;4994374;28;20333;-74
2021/10/13 06:37:54;;;;;;;;;;;8.00;99.90;;;;;;5006182;28;20380;-72
2021/10/13 06:40:21;;;;;;;;;;;8.00;99.90;;;;;;5011426;28;19944;-72
2021/10/13 06:42:48;;;;;;;;;;;8.10;99.90;;;;;;5001883;28;19958;-72
2021/10/13 06:45:15;;;;;;;;;;;8.20;99.90;;;;;;5005684;28;20041;-72
2021/10/13 06:47:41;;;;;;;;;;;8.20;99.90;;;;;;5009288;28;20480;-73
2021/10/13 06:50:08;;;;;;;;;;;8.20;99.90;;;;;;5004210;28;20394;-73
2021/10/13 06:52:37;;;;;;;;;;;8.30;99.90;;;;;;5006767;28;19940;-74
2021/10/13 06:55:05;;;;;;;;;;;8.40;99.90;;;;;;5003887;28;19988;-73
2021/10/13 06:57:32;;;;;;;;;;;8.50;99.90;;;;;;5000229;28;19952;-73
2021/10/13 06:59:59;;;;;;;;;;;8.60;99.90;;;;;;5000086;28;20601;-75
2021/10/13 07:02:25;;;;;;;;;;;8.70;99.90;;;;;;5007277;28;19960;-74
2021/10/13 07:04:52;;;;;;;;;;;8.70;99.90;;;;;;4999653;28;20070;-74
2021/10/13 07:07:18;;;;;;;;;;;8.70;99.90;;;;;;5006582;28;20020;-73
2021/10/13 07:09:45;;;;;;;;;;;8.80;99.90;;;;;;5006841;28;19936;-73
2021/10/13 07:12:13;;;;;;;;;;;8.80;99.90;;;;;;5009909;28;19939;-74
2021/10/13 07:14:40;;;;;;;;;;;8.90;99.90;;;;;;4999656;28;20043;-72
2021/10/13 07:17:06;;;;;;;;;;;8.90;99.90;;;;;;5001305;28;19941;-74
2021/10/13 07:19:33;;;;;;;;;;;9.10;99.90;;;;;;5006511;28;19938;-73
2021/10/13 07:22:00;;;;;;;;;;;9.10;99.90;;;;;;5000760;28;20559;-74
2021/10/13 07:24:26;;;;;;;;;;;9.20;99.90;;;;;;5006950;28;20034;-73
2021/10/13 07:26:53;;;;;;;;;;;9.30;99.90;;;;;;4998202;28;19938;-74
2021/10/13 07:29:21;;;;;;;;;;;9.40;99.90;;;;;;5001058;28;19942;-73
2021/10/13 07:31:48;;;;;;;;;;;9.40;99.90;;;;;;5002158;28;19938;-74
2021/10/13 07:34:15;;;;;;;;;;;9.60;99.90;;;;;;4999663;28;19942;-74
2021/10/13 07:36:41;;;;;;;;;;;9.70;99.90;;;;;;5001465;28;19960;-75
2021/10/13 07:39:08;;;;;;;;;;;9.70;99.90;;;;;;4998924;28;20063;-73
2021/10/13 07:41:35;;;;;;;;;;;9.90;99.90;;;;;;5001993;28;19943;-75
2021/10/13 07:44:02;;;;;;;;;;;10.00;99.90;;;;;;4998863;28;19942;-74
2021/10/13 07:46:30;;;;;;;;;;;10.00;99.90;;;;;;5005604;28;19966;-75
2021/10/13 07:48:56;;;;;;;;;;;10.20;99.90;;;;;;5002158;28;19955;-74
2021/10/13 07:51:23;;;;;;;;;;;10.40;99.90;;;;;;4999885;28;19966;-76
2021/10/13 07:53:50;;;;;;;;;;;10.50;99.90;;;;;;5001244;28;19995;-74
2021/10/13 07:56:16;;;;;;;;;;;10.70;99.90;;;;;;5000538;28;19952;-74
2021/10/13 07:58:43;;;;;;;;;;;10.70;99.90;;;;;;5006529;28;19939;-74
2021/10/13 08:01:10;;;;;;;;;;;10.90;99.90;;;;;;5005463;28;20557;-74
2021/10/13 08:03:39;;;;;;;;;;;11.00;99.90;;;;;;5000172;28;20343;-74
2021/10/13 08:06:06;;;;;;;;;;;11.00;99.90;;;;;;5002778;28;19950;-74
2021/10/13 08:08:32;;;;;;;;;;;11.00;99.90;;;;;;4999081;28;20019;-73
2021/10/13 08:10:59;;;;;;;;;;;11.10;99.90;;;;;;5004086;28;19944;-74
2021/10/13 08:13:26;;;;;;;;;;;11.10;99.90;;;;;;5000798;28;19945;-74
2021/10/13 08:15:53;;;;;;;;;;;11.10;99.90;;;;;;4997858;28;19947;-74
2021/10/13 08:18:19;;;;;;;;;;;11.10;99.90;;;;;;5004433;28;20026;-75
2021/10/13 08:20:47;;;;;;;;;;;11.20;99.90;;;;;;5007127;28;19955;-73
2021/10/13 08:23:14;;;;;;;;;;;10.90;99.90;;;;;;4994924;28;19963;-73
2021/10/13 08:25:41;;;;;;;;;;;10.80;99.90;;;;;;5003024;28;19945;-75
2021/10/13 08:28:07;;;;;;;;;;;10.80;99.90;;;;;;5003614;28;20020;-74
2021/10/13 08:30:34;;;;;;;;;;;10.70;99.90;;;;;;4996676;28;19986;-73
2021/10/13 08:33:01;;;;;;;;;;;10.70;99.90;;;;;;5005712;28;19969;-75
2021/10/13 08:35:28;;;;;;;;;;;10.70;99.90;;;;;;5004180;28;19942;-73
2021/10/13 08:37:56;;;;;;;;;;;10.70;99.90;;;;;;4996151;28;19939;-75
2021/10/13 08:40:23;;;;;;;;;;;10.80;99.90;;;;;;4993731;28;20471;-74
2021/10/13 08:42:53;;;;;;;;;;;10.90;99.90;;;;;;4995064;28;19976;-74
2021/10/13 08:45:20;;;;;;;;;;;11.00;99.90;;;;;;5000361;28;19950;-74
2021/10/13 08:47:47;;;;;;;;;;;11.00;99.90;;;;;;4994735;28;20028;-74
2021/10/13 08:50:13;;;;;;;;;;;11.10;99.90;;;;;;5000713;28;20455;-73
2021/10/13 08:52:40;;;;;;;;;;;11.10;99.90;;;;;;5000570;28;20309;-72
2021/10/13 08:55:09;;;;;;;;;;;11.20;99.90;;;;;;4995911;28;19940;-73
2021/10/13 08:57:36;;;;;;;;;;;11.40;99.90;;;;;;5001410;28;19947;-75
2021/10/13 09:00:03;;;;;;;;;;;11.60;99.90;;;;;;5000222;28;19975;-76
2021/10/13 09:02:37;;;;;;;;;;;11.90;99.90;;;;;;5011654;28;20336;-77
2021/10/13 09:05:04;;;;;;;;;;;12.20;99.90;;;;;;4996439;28;19936;-74
2021/10/13 09:07:31;;;;;;;;;;;12.30;99.90;;;;;;5003320;28;19953;-74
2021/10/13 09:09:58;;;;;;;;;;;12.40;99.90;;;;;;5001891;28;19962;-75
2021/10/13 09:12:33;;;;;;;;;;;12.50;99.90;;;;;;5004808;28;20282;-77
2021/10/13 09:15:05;;;;;;;;;;;12.60;99.90;;;;;;5000012;28;19936;-74
2021/10/13 09:17:31;;;;;;;;;;;12.70;99.90;;;;;;4994347;28;19939;-75
2021/10/13 09:19:58;;;;;;;;;;;12.70;99.90;;;;;;4993909;28;20036;-76
2021/10/13 09:22:25;;;;;;;;;;;12.60;99.90;;;;;;4995902;28;19963;-74
2021/10/13 09:24:53;;;;;;;;;;;12.60;99.90;;;;;;5000608;28;19991;-74
2021/10/13 09:27:21;;;;;;;;;;;12.40;99.90;;;;;;4999525;28;19944;-74
2021/10/13 09:29:49;;;;;;;;;;;12.40;99.90;;;;;;4996869;28;19957;-74
2021/10/13 09:32:20;;;;;;;;;;;12.30;99.90;;;;;;4994332;28;19940;-74
2021/10/13 09:34:48;;;;;;;;;;;12.30;99.90;;;;;;4998346;28;19945;-73
2021/10/13 09:37:14;;;;;;;;;;;12.20;99.90;;;;;;4999052;28;19948;-73
2021/10/13 09:39:41;;;;;;;;;;;12.20;99.90;;;;;;5025932;28;19941;-75
2021/10/13 09:42:09;;;;;;;;;;;12.30;99.90;;;;;;4995990;28;19942;-73
2021/10/13 09:44:37;;;;;;;;;;;12.30;99.90;;;;;;4994943;28;20416;-74
2021/10/13 09:47:06;;;;;;;;;;;12.30;99.90;;;;;;4998516;28;20405;-75
2021/10/13 09:49:35;;;;;;;;;;;12.40;99.90;;;;;;5005587;28;19939;-73
2021/10/13 09:52:03;;;;;;;;;;;12.40;99.90;;;;;;4998940;28;19936;-74
2021/10/13 09:54:30;;;;;;;;;;;12.40;99.90;;;;;;4994088;28;19963;-75
2021/10/13 09:56:57;;;;;;;;;;;12.40;99.90;;;;;;4993849;28;19926;-75
2021/10/13 09:59:24;;;;;;;;;;;12.40;99.90;;;;;;4999310;28;20457;-76
2021/10/13 10:01:51;;;;;;;;;;;12.30;99.90;;;;;;4998579;28;19956;-72
2021/10/13 10:04:21;;;;;;;;;;;12.20;99.90;;;;;;4997436;28;20039;-73
2021/10/13 10:06:50;;;;;;;;;;;12.10;99.90;;;;;;4997027;28;19934;-74
2021/10/13 10:09:18;;;;;;;;;;;12.10;99.90;;;;;;4993372;28;19925;-75
2021/10/13 10:11:46;;;;;;;;;;;12.10;99.90;;;;;;5004632;28;19936;-76
2021/10/13 10:14:32;;;;;;;;;;;12.10;99.90;;;;;;4993465;28;20024;-73
2021/10/13 10:16:59;;;;;;;;;;;12.20;99.90;;;;;;4992743;28;20016;-74
2021/10/13 10:19:27;;;;;;;;;;;12.20;99.90;;;;;;5002343;28;20043;-73
2021/10/13 10:21:55;;;;;;;;;;;12.20;99.90;;;;;;4997522;28;19969;-74
2021/10/13 10:24:26;;;;;;;;;;;12.30;99.90;;;;;;4993700;28;19926;-74
2021/10/13 10:26:53;;;;;;;;;;;12.40;99.90;;;;;;4995672;28;20032;-73
2021/10/13 10:29:20;;;;;;;;;;;12.40;99.90;;;;;;4991168;28;20017;-74
2021/10/13 10:31:55;;;;;;;;;;;12.40;99.90;;;;;;5007122;28;19966;-73
2021/10/13 10:34:23;;;;;;;;;;;12.50;99.90;;;;;;4989403;28;19957;-74
2021/10/13 10:37:14;;;;;;;;;;;12.40;99.90;;;;;;4992864;28;19971;-75
2021/10/13 10:40:01;;;;;;;;;;;12.40;99.90;;;;;;4993115;28;19937;-75
2021/10/13 10:42:44;;;;;;;;;;;12.40;99.90;;;;;;4995373;28;19941;-74
2021/10/13 10:45:12;;;;;;;;;;;12.40;99.90;;;;;;4996023;28;19954;-75
2021/10/13 10:47:48;;;;;;;;;;;12.50;99.90;;;;;;5001648;28;19939;-74
2021/10/13 10:50:15;;;;;;;;;;;12.70;99.90;;;;;;4999070;28;20125;-74
2021/10/13 10:53:06;;;;;;;;;;;12.70;99.90;;;;;;4999615;28;19940;-74
2021/10/13 10:55:34;;;;;;;;;;;12.70;99.90;;;;;;4997721;28;19939;-73
2021/10/13 10:58:13;;;;;;;;;;;12.90;99.90;;;;;;4990622;28;19943;-73
2021/10/13 11:00:39;;;;;;;;;;;13.00;99.90;;;;;;4994402;28;19960;-71
2021/10/13 11:03:16;;;;;;;;;;;13.20;99.90;;;;;;4993760;28;19961;-72
2021/10/13 11:05:43;;;;;;;;;;;13.40;99.90;;;;;;4991520;28;19958;-72
2021/10/13 11:08:11;;;;;;;;;;;13.50;99.90;;;;;;4993274;28;19951;-73
2021/10/13 11:10:39;;;;;;;;;;;13.50;99.90;;;;;;5000403;28;19941;-72
2021/10/13 11:13:06;;;;;;;;;;;13.40;99.90;;;;;;5003032;28;19989;-74
2021/10/13 11:15:33;;;;;;;;;;;13.50;99.90;;;;;;4999642;28;19944;-74
2021/10/13 11:18:10;;;;;;;;;;;13.60;99.90;;;;;;4998691;28;20682;-74
2021/10/13 11:20:37;;;;;;;;;;;13.70;99.90;;;;;;5000054;28;20010;-73
2021/10/13 11:23:04;;;;;;;;;;;13.70;99.90;;;;;;4997775;28;19962;-74
2021/10/13 11:25:32;;;;;;;;;;;14.10;99.90;;;;;;4998859;28;20458;-75
2021/10/13 11:28:01;;;;;;;;;;;14.10;99.90;;;;;;4995714;28;20039;-75
2021/10/13 11:30:29;;;;;;;;;;;14.50;99.90;;;;;;4996347;28;20404;-73
2021/10/13 11:32:56;;;;;;;;;;;14.80;99.90;;;;;;5004133;28;20757;-73
2021/10/13 11:35:23;;;;;;;;;;;15.00;99.90;;;;;;5004238;28;19939;-74
2021/10/13 11:37:50;;;;;;;;;;;15.10;99.90;;;;;;5003024;28;20449;-77
2021/10/13 11:40:18;;;;;;;;;;;15.10;99.90;;;;;;5001795;28;20045;-74
2021/10/13 11:42:45;;;;;;;;;;;14.90;99.90;;;;;;4998263;28;19942;-75
2021/10/13 11:45:15;;;;;;;;;;;14.80;99.90;;;;;;4997158;28;19964;-75
2021/10/13 11:47:42;;;;;;;;;;;14.80;99.90;;;;;;4996458;28;19966;-74
2021/10/13 11:50:10;;;;;;;;;;;14.70;99.90;;;;;;5004478;28;19961;-74
2021/10/13 11:52:38;;;;;;;;;;;14.70;99.90;;;;;;4997479;28;20279;-75
2021/10/13 11:55:09;;;;;;;;;;;14.70;99.90;;;;;;5001114;28;19985;-73
2021/10/13 11:57:38;;;;;;;;;;;14.70;99.90;;;;;;4996305;28;20433;-73
2021/10/13 12:00:08;;;;;;;;;;;14.70;99.90;;;;;;5006615;28;19940;-75
2021/10/13 12:02:37;;;;;;;;;;;14.70;99.90;;;;;;5004959;28;19941;-75
2021/10/13 12:05:04;;;;;;;;;;;14.60;99.90;;;;;;5004919;28;19934;-75
2021/10/13 12:07:40;;;;;;;;;;;14.50;99.90;;;;;;4999784;28;20988;-78
2021/10/13 12:10:07;;;;;;;;;;;14.40;99.90;;;;;;5000951;28;19926;-75
2021/10/13 12:12:33;;;;;;;;;;;14.30;99.90;;;;;;5000203;28;20528;-74
2021/10/13 12:15:00;;;;;;;;;;;14.20;99.90;;;;;;4991301;28;19949;-77
2021/10/13 12:17:28;;;;;;;;;;;14.40;99.90;;;;;;4997519;28;19932;-76
2021/10/13 12:19:57;;;;;;;;;;;14.50;99.90;;;;;;4999383;28;19933;-76
2021/10/13 12:22:24;;;;;;;;;;;14.50;99.90;;;;;;4997374;28;20012;-74
2021/10/13 12:24:51;;;;;;;;;;;14.60;99.90;;;;;;4995791;28;19926;-75
2021/10/13 12:27:31;;;;;;;;;;;14.70;99.90;;;;;;4999544;28;19931;-75
2021/10/13 12:29:59;;;;;;;;;;;14.80;99.90;;;;;;5001236;28;19975;-75
2021/10/13 12:32:26;;;;;;;;;;;14.80;99.90;;;;;;4997843;28;19953;-74
2021/10/13 12:34:54;;;;;;;;;;;14.80;99.90;;;;;;4998215;28;20374;-74
2021/10/13 12:37:25;;;;;;;;;;;14.90;99.90;;;;;;5003620;28;20388;-73
2021/10/13 12:39:52;;;;;;;;;;;15.00;99.90;;;;;;5006130;28;19929;-72
2021/10/13 12:42:23;;;;;;;;;;;15.10;99.90;;;;;;4996584;28;19934;-73
2021/10/13 12:44:58;;;;;;;;;;;15.10;99.90;;;;;;4998613;28;19933;-74
2021/10/13 12:47:25;;;;;;;;;;;15.10;99.90;;;;;;4999039;28;19933;-75
2021/10/13 12:49:52;;;;;;;;;;;15.20;99.90;;;;;;5000779;28;20024;-75
2021/10/13 12:52:26;;;;;;;;;;;15.30;99.90;;;;;;4999523;28;19926;-74
2021/10/13 12:54:55;;;;;;;;;;;15.40;99.90;;;;;;5001654;28;19930;-74
2021/10/13 12:57:23;;;;;;;;;;;15.40;99.90;;;;;;5000572;28;19965;-74
2021/10/13 12:59:50;;;;;;;;;;;15.30;99.90;;;;;;5000105;28;20341;-72
2021/10/13 13:02:17;;;;;;;;;;;15.10;99.90;;;;;;4995544;28;20395;-72
2021/10/13 13:04:44;;;;;;;;;;;15.00;99.90;;;;;;4998726;28;19933;-72
2021/10/13 13:07:11;;;;;;;;;;;15.00;99.90;;;;;;5009883;28;20031;-72
2021/10/13 13:09:40;;;;;;;;;;;15.10;99.90;;;;;;5000621;28;19956;-72
2021/10/13 13:12:07;;;;;;;;;;;15.00;99.90;;;;;;4992490;28;19937;-73
2021/10/13 13:14:34;;;;;;;;;;;14.90;99.90;;;;;;5006679;28;20519;-72
2021/10/13 13:17:01;;;;;;;;;;;14.70;99.90;;;;;;4999889;28;19932;-72
2021/10/13 13:19:28;;;;;;;;;;;14.70;99.90;;;;;;4998514;28;19930;-73
2021/10/13 13:21:54;;;;;;;;;;;14.70;99.90;;;;;;4999135;28;20379;-73
2021/10/13 13:24:21;;;;;;;;;;;14.60;99.90;;;;;;4993985;28;19930;-73
2021/10/13 13:26:49;;;;;;;;;;;14.70;99.90;;;;;;4989229;28;20032;-73
2021/10/13 13:29:16;;;;;;;;;;;14.60;99.90;;;;;;5011581;28;20408;-74
2021/10/13 13:31:43;;;;;;;;;;;14.40;99.90;;;;;;4998533;28;20013;-73
2021/10/13 13:34:10;;;;;;;;;;;14.30;99.90;;;;;;4994901;28;19930;-75
2021/10/13 13:36:36;;;;;;;;;;;14.60;99.90;;;;;;5004432;28;20396;-75
2021/10/13 13:39:03;;;;;;;;;;;14.80;99.50;;;;;;5007916;28;19952;-73
2021/10/13 13:41:30;;;;;;;;;;;15.20;98.70;;;;;;4996420;28;20500;-74
2021/10/13 13:43:58;;;;;;;;;;;15.40;97.00;;;;;;4999692;28;20360;-74
2021/10/13 13:46:25;;;;;;;;;;;15.60;96.60;;;;;;5018652;28;20038;-74
2021/10/13 13:48:51;;;;;;;;;;;15.80;95.90;;;;;;5000421;28;19925;-73
2021/10/13 13:51:19;;;;;;;;;;;15.70;95.60;;;;;;5010837;28;20008;-73
2021/10/13 13:53:45;;;;;;;;;;;15.70;95.30;;;;;;4995672;28;19936;-73
2021/10/13 13:56:12;;;;;;;;;;;15.70;96.30;;;;;;5001274;28;20386;-73
2021/10/13 13:58:39;;;;;;;;;;;15.70;95.30;;;;;;4996596;28;20058;-72
2021/10/13 14:01:07;;;;;;;;;;;15.70;95.70;;;;;;5001628;28;20320;-73
2021/10/13 14:03:34;;;;;;;;;;;15.60;95.80;;;;;;4991982;28;20000;-72
2021/10/13 14:06:01;;;;;;;;;;;15.50;95.90;;;;;;4996756;28;19962;-73
2021/10/13 14:08:28;;;;;;;;;;;15.20;95.80;;;;;;5005660;28;19934;-74
2021/10/13 14:10:55;;;;;;;;;;;15.20;96.10;;;;;;4998800;28;20356;-74
2021/10/13 14:13:22;;;;;;;;;;;15.10;96.40;;;;;;5017815;28;19939;-74
2021/10/13 14:15:49;;;;;;;;;;;14.90;96.50;;;;;;4993788;28;20452;-72
2021/10/13 14:18:17;;;;;;;;;;;14.90;96.70;;;;;;4994236;28;19925;-72
2021/10/13 14:20:44;;;;;;;;;;;14.90;96.20;;;;;;5014273;28;20009;-71
2021/10/13 14:23:11;;;;;;;;;;;14.90;96.10;;;;;;4995621;28;19953;-73
2021/10/13 14:25:37;;;;;;;;;;;14.90;95.50;;;;;;4997711;28;19930;-73
2021/10/13 14:28:04;;;;;;;;;;;14.90;94.80;;;;;;4994657;28;19930;-73